Time;durP1;ratioP1;P1;durP2;ratioP2;P2;SDS_P1;SDS_P2;PMS_P1;PMS_P2;Temp;Humidity;BMP_temperature;BMP_pressure;BME280_temperature;BME280_humidity;BME280_pressure;Samples;Min_cycle;Max_cycle;Signal;HPM_P1;HPM_P2
2022/01/12 00:00:21;;;;;;;37.72;20.65;;;;;;;;;;5102711;27;20023;-78
2022/01/12 00:02:48;;;;;;;38.10;20.35;;;;;;;;;;5138759;27;20113;-77
2022/01/12 00:05:15;;;;;;;36.50;17.42;;;;;;;;;;5119787;27;20033;-78
2022/01/12 00:07:40;;;;;;;41.63;20.60;;;;;;;;;;5138468;27;20409;-78
2022/01/12 00:10:07;;;;;;;43.53;23.00;;;;;;;;;;5138403;27;20018;-77
2022/01/12 00:12:35;;;;;;;40.17;23.70;;;;;;;;;;5119377;27;20027;-78
2022/01/12 00:15:00;;;;;;;34.85;18.58;;;;;;;;;;5119638;27;20125;-80
2022/01/12 00:17:25;;;;;;;40.97;22.00;;;;;;;;;;5119592;27;20105;-79
2022/01/12 00:19:54;;;;;;;52.85;31.58;;;;;;;;;;5119129;27;20071;-78
2022/01/12 00:22:22;;;;;;;55.60;33.50;;;;;;;;;;5119954;27;20026;-77
2022/01/12 00:33:12;;;;;;;44.08;25.08;;;;;;;;;;5122210;27;20490;-79
2022/01/12 00:35:38;;;;;;;26.88;16.48;;;;;;;;;;5138487;27;20037;-78
2022/01/12 00:38:03;;;;;;;22.58;13.55;;;;;;;;;;5119109;27;20027;-79
2022/01/12 00:40:29;;;;;;;25.52;14.48;;;;;;;;;;5136855;27;20022;-77
2022/01/12 00:42:55;;;;;;;25.27;14.55;;;;;;;;;;5137727;27;20094;-77
2022/01/12 00:45:21;;;;;;;26.60;15.85;;;;;;;;;;5120474;27;20023;-78
2022/01/12 00:47:47;;;;;;;27.73;16.35;;;;;;;;;;5138118;27;20451;-79
2022/01/12 00:50:13;;;;;;;29.00;14.70;;;;;;;;;;5119071;27;20140;-78
2022/01/12 00:52:38;;;;;;;30.92;16.75;;;;;;;;;;5118131;27;20101;-78
2022/01/12 00:55:04;;;;;;;29.27;14.18;;;;;;;;;;5118562;27;20033;-78
2022/01/12 00:57:30;;;;;;;26.88;14.38;;;;;;;;;;5118360;27;20391;-78
2022/01/12 00:59:56;;;;;;;22.67;13.45;;;;;;;;;;5137350;27;20033;-79
2022/01/12 01:02:22;;;;;;;22.55;12.15;;;;;;;;;;5137366;27;20018;-79
2022/01/12 01:04:51;;;;;;;24.23;13.48;;;;;;;;;;5138118;27;20019;-79
2022/01/12 01:07:17;;;;;;;23.95;14.00;;;;;;;;;;5137196;27;20022;-79
2022/01/12 01:09:50;;;;;;;27.73;15.60;;;;;;;;;;5118344;27;20018;-78
2022/01/12 01:12:15;;;;;;;27.80;16.42;;;;;;;;;;5118908;27;20107;-78
2022/01/12 01:15:00;;;;;;;25.25;13.70;;;;;;;;;;5118682;27;20134;-79
2022/01/12 01:25:42;;;;;;;25.58;14.55;;;;;;;;;;5136460;27;20033;-78
2022/01/12 01:28:09;;;;;;;26.85;14.35;;;;;;;;;;5137722;27;20083;-80
2022/01/12 01:30:37;;;;;;;36.20;18.13;;;;;;;;;;5117948;27;20457;-78
2022/01/12 01:33:06;;;;;;;28.83;14.40;;;;;;;;;;5136909;27;20109;-78
2022/01/12 01:35:32;;;;;;;27.10;14.90;;;;;;;;;;5118044;27;20034;-77
2022/01/12 01:38:01;;;;;;;26.98;14.52;;;;;;;;;;5119475;27;20019;-78
2022/01/12 01:40:28;;;;;;;;;;;;;;;;;;5138421;27;20050;-78
2022/01/12 01:43:09;;;;;;;30.35;14.90;;;;;;;;;;5136215;27;19994;-78
2022/01/12 01:53:48;;;;;;;28.23;14.82;;;;;;;;;;5136217;27;20608;-78
2022/01/12 01:56:16;;;;;;;23.38;13.93;;;;;;;;;;5136538;27;20110;-78
2022/01/12 01:58:42;;;;;;;22.38;11.40;;;;;;;;;;5136710;27;20022;-78
2022/01/12 02:01:11;;;;;;;24.85;13.85;;;;;;;;;;5132967;27;20026;-78
2022/01/12 02:03:36;;;;;;;23.58;12.63;;;;;;;;;;5117874;27;20180;-77
2022/01/12 02:06:04;;;;;;;24.90;13.65;;;;;;;;;;5117870;27;20487;-78
2022/01/12 02:08:33;;;;;;;20.48;11.50;;;;;;;;;;5117779;27;20015;-77
2022/01/12 02:11:00;;;;;;;22.42;13.15;;;;;;;;;;5135995;27;20022;-77
2022/01/12 02:13:29;;;;;;;20.45;12.25;;;;;;;;;;5137366;27;20026;-78
2022/01/12 02:15:55;;;;;;;23.33;13.15;;;;;;;;;;5117775;27;20112;-79
2022/01/12 02:18:36;;;;;;;25.20;13.50;;;;;;;;;;5135623;27;20018;-79
2022/01/12 02:40:20;;;;;;;45.80;21.63;;;;;;;;;;5140270;27;20108;-78
2022/01/12 02:42:50;;;;;;;28.40;15.25;;;;;;;;;;5121824;27;20023;-77
2022/01/12 02:50:55;;;;;;;27.20;14.18;;;;;;;;;;5140142;27;20536;-78
2022/01/12 02:53:40;;;;;;;28.15;14.80;;;;;;;;;;5120750;27;20524;-78
2022/01/12 02:56:11;;;;;;;28.55;15.05;;;;;;;;;;5121322;27;20054;-77
2022/01/12 02:58:38;;;;;;;27.35;14.88;;;;;;;;;;5138695;27;20076;-78
2022/01/12 03:03:36;;;;;;;26.65;14.75;;;;;;;;;;5132290;27;20447;-78
2022/01/12 03:06:04;;;;;;;26.58;14.35;;;;;;;;;;5120184;27;20027;-79
2022/01/12 03:08:36;;;;;;;28.00;14.85;;;;;;;;;;5100092;27;20027;-78
2022/01/12 03:11:02;;;;;;;27.17;13.77;;;;;;;;;;5100540;27;20457;-78
2022/01/12 03:13:28;;;;;;;28.85;15.73;;;;;;;;;;5100023;27;20110;-78
2022/01/12 03:15:54;;;;;;;27.88;15.13;;;;;;;;;;5119136;27;20063;-78
2022/01/12 03:18:19;;;;;;;31.70;15.70;;;;;;;;;;5101666;27;20057;-78
2022/01/12 03:20:45;;;;;;;31.02;16.58;;;;;;;;;;5100164;27;20015;-78
2022/01/12 03:23:12;;;;;;;30.67;17.58;;;;;;;;;;5118599;27;20019;-78
2022/01/12 03:25:38;;;;;;;28.90;15.55;;;;;;;;;;5119039;27;20027;-79
2022/01/12 03:28:05;;;;;;;30.80;16.00;;;;;;;;;;5100461;27;20037;-79
2022/01/12 03:30:37;;;;;;;29.58;16.30;;;;;;;;;;5118962;27;20483;-78
2022/01/12 03:33:14;;;;;;;28.50;15.77;;;;;;;;;;5100567;27;20413;-79
2022/01/12 03:35:51;;;;;;;31.08;16.58;;;;;;;;;;5099718;27;20027;-79
2022/01/12 03:38:20;;;;;;;30.15;16.27;;;;;;;;;;5118218;27;20015;-78
2022/01/12 03:40:45;;;;;;;27.98;15.07;;;;;;;;;;5118678;27;20018;-78
2022/01/12 03:43:11;;;;;;;30.13;16.83;;;;;;;;;;5099549;27;20490;-78
2022/01/12 03:45:36;;;;;;;31.60;14.93;;;;;;;;;;5100041;27;20026;-78
2022/01/12 03:48:02;;;;;;;32.22;16.50;;;;;;;;;;5099207;27;20452;-77
2022/01/12 03:50:27;;;;;;;31.08;16.63;;;;;;;;;;5117943;27;20200;-79
2022/01/12 03:52:53;;;;;;;30.90;16.75;;;;;;;;;;5099542;27;20109;-78
2022/01/12 03:55:18;;;;;;;29.52;13.77;;;;;;;;;;5099784;27;20079;-80
2022/01/12 03:57:44;;;;;;;32.40;17.02;;;;;;;;;;5099523;27;20023;-78
2022/01/12 04:00:09;;;;;;;34.28;16.27;;;;;;;;;;5099722;27;20027;-79
2022/01/12 04:02:35;;;;;;;32.42;15.88;;;;;;;;;;5099208;27;20050;-79
2022/01/12 04:05:11;;;;;;;31.63;16.40;;;;;;;;;;5099727;27;20019;-79
2022/01/12 04:10:21;;;;;;;30.67;15.68;;;;;;;;;;5117838;27;20113;-79
2022/01/12 04:12:46;;;;;;;40.85;17.48;;;;;;;;;;5099388;27;20070;-79
2022/01/12 04:15:11;;;;;;;45.63;22.65;;;;;;;;;;5099077;27;20025;-78
2022/01/12 04:17:37;;;;;;;45.63;23.40;;;;;;;;;;5099009;27;20015;-78
2022/01/12 04:20:03;;;;;;;41.55;20.25;;;;;;;;;;5099445;27;20449;-78
2022/01/12 04:25:12;;;;;;;30.45;16.33;;;;;;;;;;5116986;27;20392;-78
2022/01/12 04:27:39;;;;;;;37.95;16.55;;;;;;;;;;5098929;27;20051;-79
2022/01/12 04:30:06;;;;;;;33.35;15.52;;;;;;;;;;5099098;27;20528;-79
2022/01/12 04:32:35;;;;;;;29.80;15.68;;;;;;;;;;5098729;27;20456;-78
2022/01/12 04:35:00;;;;;;;27.02;15.27;;;;;;;;;;5117327;27;20023;-79
2022/01/12 04:37:25;;;;;;;24.98;11.98;;;;;;;;;;5098707;27;20065;-79
2022/01/12 04:39:51;;;;;;;30.02;15.15;;;;;;;;;;5098647;27;20054;-79
2022/01/12 04:42:16;;;;;;;30.08;15.02;;;;;;;;;;5098662;27;20019;-78
2022/01/12 04:44:45;;;;;;;34.92;15.95;;;;;;;;;;5098500;27;20027;-80
2022/01/12 04:47:17;;;;;;;31.05;15.48;;;;;;;;;;5099098;27;20125;-79
2022/01/12 04:52:10;;;;;;;45.15;21.98;;;;;;;;;;5116492;27;20119;-80
2022/01/12 04:54:36;;;;;;;33.70;18.27;;;;;;;;;;5098672;27;20547;-81
2022/01/12 04:57:02;;;;;;;31.60;16.85;;;;;;;;;;5098429;27;20114;-80
2022/01/12 04:59:28;;;;;;;30.60;17.05;;;;;;;;;;5097639;28;20031;-81
2022/01/12 05:01:58;;;;;;;30.75;15.05;;;;;;;;;;5098137;27;20027;-80
2022/01/12 05:07:23;;;;;;;31.25;16.48;;;;;;;;;;5116814;27;20038;-80
2022/01/12 05:12:46;;;;;;;27.65;17.25;;;;;;;;;;5116844;27;20019;-81
2022/01/12 05:12:50;;;;;;;30.10;17.40;;;;;;;;;;5114486;27;20019;-79
2022/01/12 05:15:24;;;;;;;44.25;21.30;;;;;;;;;;5129239;27;20027;-80
2022/01/12 05:17:50;;;;;;;39.40;21.05;;;;;;;;;;5114031;27;20034;-77
2022/01/12 05:20:15;;;;;;;40.13;21.75;;;;;;;;;;5106765;27;20019;-78
2022/01/12 05:22:40;;;;;;;52.15;26.90;;;;;;;;;;5116366;27;20027;-78
2022/01/12 05:25:06;;;;;;;74.85;39.05;;;;;;;;;;5098073;27;20027;-78
2022/01/12 05:27:31;;;;;;;104.40;48.50;;;;;;;;;;5115742;27;20496;-79
2022/01/12 05:29:57;;;;;;;57.42;28.98;;;;;;;;;;5097529;27;20019;-80
2022/01/12 05:32:24;;;;;;;65.28;34.70;;;;;;;;;;5116443;27;20527;-80
2022/01/12 05:34:50;;;;;;;58.40;30.60;;;;;;;;;;5097771;27;20440;-77
2022/01/12 05:37:15;;;;;;;186.85;103.57;;;;;;;;;;5097437;27;20038;-80
2022/01/12 05:39:41;;;;;;;193.55;111.95;;;;;;;;;;5097760;27;20162;-79
2022/01/12 05:42:06;;;;;;;256.63;113.43;;;;;;;;;;5097168;27;20441;-80
2022/01/12 05:44:35;;;;;;;92.55;44.60;;;;;;;;;;5097274;27;20027;-78
2022/01/12 05:47:00;;;;;;;53.85;28.73;;;;;;;;;;5097800;27;20117;-80
2022/01/12 05:49:36;;;;;;;48.00;25.48;;;;;;;;;;5097146;27;20167;-80
2022/01/12 05:52:02;;;;;;;59.30;34.45;;;;;;;;;;5096469;27;20045;-80
2022/01/12 05:54:27;;;;;;;45.42;24.52;;;;;;;;;;5113685;27;20049;-80
2022/01/12 05:56:53;;;;;;;45.38;23.88;;;;;;;;;;5098276;27;20023;-79
2022/01/12 05:59:18;;;;;;;49.45;27.58;;;;;;;;;;5098192;27;20023;-79
2022/01/12 06:01:43;;;;;;;46.53;24.48;;;;;;;;;;5095839;27;20019;-80
2022/01/12 06:04:09;;;;;;;49.28;26.73;;;;;;;;;;5097017;28;20114;-78
2022/01/12 06:06:34;;;;;;;48.20;26.77;;;;;;;;;;5096907;28;20030;-79
2022/01/12 06:09:00;;;;;;;40.63;22.50;;;;;;;;;;5115487;27;20068;-79
2022/01/12 06:11:25;;;;;;;52.42;29.60;;;;;;;;;;5097293;28;20027;-79
2022/01/12 06:13:52;;;;;;;45.83;25.30;;;;;;;;;;5096931;28;20019;-80
2022/01/12 06:16:18;;;;;;;83.30;45.10;;;;;;;;;;5096720;28;20035;-80
2022/01/12 06:18:43;;;;;;;65.88;34.38;;;;;;;;;;5097242;28;20417;-79
2022/01/12 06:21:09;;;;;;;45.35;24.80;;;;;;;;;;5096941;28;20379;-78
2022/01/12 06:23:34;;;;;;;44.75;25.65;;;;;;;;;;5115703;28;20080;-77
2022/01/12 06:26:01;;;;;;;41.08;23.30;;;;;;;;;;5115686;28;20047;-76
2022/01/12 06:31:17;;;;;;;36.58;21.08;;;;;;;;;;5115071;28;20064;-75
2022/01/12 06:33:44;;;;;;;57.78;28.58;;;;;;;;;;5096971;28;20031;-77
2022/01/12 06:36:10;;;;;;;73.80;33.85;;;;;;;;;;5115686;28;20027;-74
2022/01/12 06:38:36;;;;;;;65.35;32.35;;;;;;;;;;5097741;28;20011;-75
2022/01/12 06:41:01;;;;;;;46.70;24.38;;;;;;;;;;5115635;28;20130;-77
2022/01/12 06:43:28;;;;;;;40.75;22.60;;;;;;;;;;5096487;28;20433;-74
2022/01/12 06:45:54;;;;;;;48.88;27.10;;;;;;;;;;5096511;28;20068;-76
2022/01/12 06:48:20;;;;;;;40.17;22.20;;;;;;;;;;5115107;28;20019;-78
2022/01/12 06:50:45;;;;;;;45.97;23.73;;;;;;;;;;5098477;28;20020;-76
2022/01/12 07:41:13;;;;;;;48.92;24.00;;;;;;;;;;4809786;29;20041;-80
2022/01/12 07:46:37;;;;;;;101.20;49.05;;;;;;;;;;4874592;29;20052;-80
2022/01/12 07:49:53;;;;;;;;;;;;;;;;;;;;;
2022/01/12 08:01:27;;;;;;;52.63;26.70;;;;;;;;;;4902892;29;20067;-79
2022/01/12 08:04:12;;;;;;;63.80;33.55;;;;;;;;;;4884886;29;20076;-79
2022/01/12 09:08:11;;;;;;;107.22;55.08;;;;;;;;;;4937534;29;20054;-79
2022/01/12 09:10:37;;;;;;;70.75;41.72;;;;;;;;;;4938388;29;20239;-79
2022/01/12 09:13:02;;;;;;;80.50;45.47;;;;;;;;;;4920893;29;20535;-81
2022/01/12 09:15:27;;;;;;;98.90;49.90;;;;;;;;;;4938116;29;20018;-77
2022/01/12 09:18:02;;;;;;;125.10;60.25;;;;;;;;;;4938997;29;20015;-82
2022/01/12 09:20:28;;;;;;;92.40;47.00;;;;;;;;;;4938985;29;20015;-80
2022/01/12 09:22:54;;;;;;;100.28;53.78;;;;;;;;;;4938484;29;20023;-81
2022/01/12 09:25:19;;;;;;;78.95;42.90;;;;;;;;;;4936815;28;20047;-80
2022/01/12 09:27:44;;;;;;;76.80;40.72;;;;;;;;;;4920505;29;20031;-83
2022/01/12 09:30:12;;;;;;;72.30;37.90;;;;;;;;;;4920650;29;20047;-83
2022/01/12 09:32:37;;;;;;;73.32;40.90;;;;;;;;;;4936861;29;20015;-84
2022/01/12 09:35:03;;;;;;;62.65;32.22;;;;;;;;;;4919740;29;20476;-82
2022/01/12 09:37:31;;;;;;;48.03;26.13;;;;;;;;;;4920676;29;20041;-83
2022/01/12 09:39:57;;;;;;;55.92;31.95;;;;;;;;;;4920011;29;20027;-81
2022/01/12 09:42:22;;;;;;;76.72;44.08;;;;;;;;;;4934852;29;20086;-83
2022/01/12 09:44:48;;;;;;;152.20;68.97;;;;;;;;;;4935530;29;20019;-82
2022/01/12 09:47:14;;;;;;;204.27;86.38;;;;;;;;;;4935542;28;20015;-80
2022/01/12 09:49:41;;;;;;;126.07;60.05;;;;;;;;;;4919034;29;20015;-84
2022/01/12 09:52:06;;;;;;;257.90;114.00;;;;;;;;;;4920227;29;20077;-82
2022/01/12 09:54:32;;;;;;;225.18;97.50;;;;;;;;;;4919212;29;20433;-81
2022/01/12 09:56:58;;;;;;;148.68;67.30;;;;;;;;;;4920130;29;20033;-83
2022/01/12 09:59:23;;;;;;;116.28;54.70;;;;;;;;;;4919676;29;20113;-82
2022/01/12 10:01:49;;;;;;;99.32;50.13;;;;;;;;;;4920315;29;20026;-84
2022/01/12 10:04:16;;;;;;;234.80;97.03;;;;;;;;;;4937311;29;20057;-83
2022/01/12 10:06:45;;;;;;;86.60;46.22;;;;;;;;;;4919904;29;20050;-84
2022/01/12 10:09:12;;;;;;;89.43;48.47;;;;;;;;;;4919555;29;20105;-82
2022/01/12 10:11:38;;;;;;;61.78;33.15;;;;;;;;;;4920062;29;20118;-83
2022/01/12 10:14:06;;;;;;;66.93;34.63;;;;;;;;;;4919724;29;20110;-85
2022/01/12 10:16:31;;;;;;;52.28;30.25;;;;;;;;;;4919971;29;20039;-82
2022/01/12 10:18:58;;;;;;;53.53;28.27;;;;;;;;;;4920306;29;20352;-82
2022/01/12 10:21:27;;;;;;;58.53;32.40;;;;;;;;;;4919647;29;20031;-84
2022/01/12 10:24:01;;;;;;;57.17;33.35;;;;;;;;;;4920061;29;20428;-82
2022/01/12 10:26:34;;;;;;;50.95;29.48;;;;;;;;;;4935691;29;20069;-83
2022/01/12 10:29:03;;;;;;;58.63;33.33;;;;;;;;;;4935609;29;20031;-83
2022/01/12 10:31:28;;;;;;;68.72;36.65;;;;;;;;;;4919873;29;20024;-84
2022/01/12 10:34:00;;;;;;;62.90;36.78;;;;;;;;;;4919863;29;20025;-83
2022/01/12 10:36:35;;;;;;;80.07;46.65;;;;;;;;;;4919504;29;20027;-86
2022/01/12 10:39:04;;;;;;;53.78;30.45;;;;;;;;;;4919734;29;20023;-82
2022/01/12 10:41:32;;;;;;;53.03;30.35;;;;;;;;;;4919400;29;20115;-85
2022/01/12 10:43:57;;;;;;;54.40;30.70;;;;;;;;;;4920591;29;20027;-83
2022/01/12 10:46:26;;;;;;;143.30;66.57;;;;;;;;;;4920256;29;20023;-82
2022/01/12 10:48:54;;;;;;;215.68;90.97;;;;;;;;;;4935334;29;20023;-84
2022/01/12 10:51:26;;;;;;;115.53;52.85;;;;;;;;;;4919707;29;20380;-84
2022/01/12 10:53:53;;;;;;;137.35;58.92;;;;;;;;;;4919882;29;20074;-82
2022/01/12 10:56:19;;;;;;;96.57;43.55;;;;;;;;;;4919461;29;20038;-83
2022/01/12 10:58:48;;;;;;;406.52;186.52;;;;;;;;;;4938634;28;20023;-84
2022/01/12 11:01:15;;;;;;;137.00;64.18;;;;;;;;;;4923559;29;20086;-84
2022/01/12 11:03:41;;;;;;;95.78;46.85;;;;;;;;;;4922526;29;20075;-85
2022/01/12 11:06:07;;;;;;;115.22;56.65;;;;;;;;;;4923269;29;20023;-83
2022/01/12 11:08:33;;;;;;;234.48;95.35;;;;;;;;;;4923395;29;20023;-84
2022/01/12 11:10:59;;;;;;;141.38;63.47;;;;;;;;;;4922974;29;20019;-83
2022/01/12 11:13:25;;;;;;;117.30;53.45;;;;;;;;;;4923432;29;20019;-84
2022/01/12 11:15:51;;;;;;;84.93;43.08;;;;;;;;;;4923021;29;20486;-84
2022/01/12 11:18:20;;;;;;;86.90;43.42;;;;;;;;;;4922369;29;20106;-83
2022/01/12 11:20:46;;;;;;;93.40;49.13;;;;;;;;;;4922930;29;21056;-83
2022/01/12 11:23:14;;;;;;;89.20;48.30;;;;;;;;;;4923426;29;21014;-82
2022/01/12 11:25:41;;;;;;;75.57;40.28;;;;;;;;;;4922884;29;20023;-83
2022/01/12 11:28:24;;;;;;;78.53;40.20;;;;;;;;;;4923013;29;20019;-85
2022/01/12 11:30:54;;;;;;;54.55;29.15;;;;;;;;;;4922581;29;20107;-86
2022/01/12 11:33:42;;;;;;;77.20;45.13;;;;;;;;;;4922781;29;20024;-84
2022/01/12 11:36:11;;;;;;;59.22;36.05;;;;;;;;;;4922407;29;20078;-83
2022/01/12 11:38:36;;;;;;;48.75;29.58;;;;;;;;;;4922112;29;20403;-83
2022/01/12 11:41:12;;;;;;;44.22;27.13;;;;;;;;;;4922730;29;20015;-85
2022/01/12 11:43:42;;;;;;;54.03;31.35;;;;;;;;;;4923149;29;20054;-86
2022/01/12 11:46:12;;;;;;;59.78;34.00;;;;;;;;;;4922184;29;20031;-85
2022/01/12 11:48:37;;;;;;;;;;;;;;;;;;4922741;29;20030;-83
2022/01/12 11:51:03;;;;;;;61.03;33.73;;;;;;;;;;4922488;29;20266;-86
2022/01/12 11:53:31;;;;;;;56.15;32.60;;;;;;;;;;4921989;29;20730;-82
2022/01/12 11:56:09;;;;;;;55.42;30.00;;;;;;;;;;4922550;29;20409;-83
2022/01/12 11:58:34;;;;;;;54.83;30.10;;;;;;;;;;4921875;29;20030;-84
2022/01/12 12:00:59;;;;;;;56.05;32.97;;;;;;;;;;4922309;29;20023;-84
2022/01/12 12:03:26;;;;;;;69.47;38.38;;;;;;;;;;4922212;29;20045;-83
2022/01/12 12:05:53;;;;;;;63.67;35.13;;;;;;;;;;4921621;29;20499;-84
2022/01/12 12:08:28;;;;;;;51.17;26.38;;;;;;;;;;4922327;29;20449;-84
2022/01/12 12:10:56;;;;;;;57.35;32.95;;;;;;;;;;4922489;29;20023;-84
2022/01/12 12:13:21;;;;;;;73.32;41.15;;;;;;;;;;4921288;29;20031;-81
2022/01/12 12:15:53;;;;;;;65.80;36.20;;;;;;;;;;4938007;29;20019;-79
2022/01/12 12:18:19;;;;;;;47.55;26.33;;;;;;;;;;4919240;29;20035;-77
2022/01/12 12:20:53;;;;;;;54.17;32.40;;;;;;;;;;4931972;29;20083;-81
2022/01/12 12:23:22;;;;;;;62.10;33.63;;;;;;;;;;4921935;29;20041;-80
2022/01/12 12:25:48;;;;;;;90.33;46.73;;;;;;;;;;4921206;29;20023;-80
2022/01/12 12:28:14;;;;;;;55.70;31.67;;;;;;;;;;4921368;29;20737;-82
2022/01/12 12:30:39;;;;;;;54.58;31.63;;;;;;;;;;4923020;29;20028;-84
2022/01/12 12:33:11;;;;;;;54.85;33.40;;;;;;;;;;4942199;29;20023;-84
2022/01/12 12:35:45;;;;;;;61.78;36.20;;;;;;;;;;4921859;29;20023;-82
2022/01/12 12:38:12;;;;;;;57.28;31.40;;;;;;;;;;4936931;28;20023;-80
2022/01/12 12:41:00;;;;;;;79.63;45.72;;;;;;;;;;4937846;28;20361;-81
2022/01/12 12:43:34;;;;;;;73.15;40.83;;;;;;;;;;4916604;29;20020;-82
2022/01/12 12:46:00;;;;;;;72.55;38.03;;;;;;;;;;4920617;29;20082;-82
2022/01/12 12:48:28;;;;;;;80.95;42.28;;;;;;;;;;4937282;29;20054;-83
2022/01/12 12:50:57;;;;;;;83.95;42.38;;;;;;;;;;4937315;28;20444;-83
2022/01/12 12:53:26;;;;;;;81.95;42.78;;;;;;;;;;4919778;29;20019;-81
2022/01/12 12:55:51;;;;;;;73.25;35.10;;;;;;;;;;4919797;29;20124;-81
2022/01/12 12:58:16;;;;;;;86.88;43.55;;;;;;;;;;4919892;29;20088;-82
2022/01/12 13:00:42;;;;;;;60.28;32.40;;;;;;;;;;4919802;29;20011;-83
2022/01/12 13:03:07;;;;;;;74.47;35.50;;;;;;;;;;4920020;29;20014;-83
2022/01/12 13:05:34;;;;;;;82.55;41.92;;;;;;;;;;4919883;29;20369;-83
2022/01/12 13:08:00;;;;;;;63.55;34.63;;;;;;;;;;4919681;29;20039;-84
2022/01/12 13:10:30;;;;;;;84.95;41.63;;;;;;;;;;4919347;29;20106;-82
2022/01/12 13:12:55;;;;;;;;;;;;;;;;;;4937639;29;20475;-82
2022/01/12 13:15:23;;;;;;;79.00;41.47;;;;;;;;;;4919730;29;19949;-83
2022/01/12 13:17:56;;;;;;;81.72;39.75;;;;;;;;;;4919264;29;20049;-83
2022/01/12 13:22:49;;;;;;;95.25;50.03;;;;;;;;;;4936448;29;20038;-82
2022/01/12 13:25:21;;;;;;;76.65;40.95;;;;;;;;;;4920062;29;20146;-79
2022/01/12 13:27:56;;;;;;;96.13;49.15;;;;;;;;;;4917785;29;20023;-81
2022/01/12 13:30:26;;;;;;;86.80;47.03;;;;;;;;;;4921753;29;20494;-81
2022/01/12 13:33:17;;;;;;;75.35;38.88;;;;;;;;;;4938877;28;20492;-81
2022/01/12 13:36:04;;;;;;;81.25;47.17;;;;;;;;;;4936368;28;20027;-82
2022/01/12 13:38:49;;;;;;;;;;;;;;;;;;;;;
2022/01/12 13:44:07;;;;;;;;;;;;;;;;;;4940945;29;20098;-81
2022/01/12 13:47:04;;;;;;;58.47;33.15;;;;;;;;;;4920928;29;20257;-82
2022/01/12 13:49:33;;;;;;;46.00;25.98;;;;;;;;;;4921303;29;20122;-80
2022/01/12 13:52:22;;;;;;;58.53;32.15;;;;;;;;;;4922107;29;20027;-80
2022/01/12 13:55:13;;;;;;;62.70;35.88;;;;;;;;;;4916214;29;20027;-82
2022/01/12 13:57:39;;;;;;;59.60;32.78;;;;;;;;;;4923609;29;20043;-79
2022/01/12 14:00:06;;;;;;;52.08;29.35;;;;;;;;;;4920618;29;20034;-80
2022/01/12 14:02:40;;;;;;;59.25;33.60;;;;;;;;;;4921954;29;20050;-80
2022/01/12 14:05:39;;;;;;;81.53;43.25;;;;;;;;;;4922756;29;20023;-80
2022/01/12 14:08:51;;;;;;;63.73;35.57;;;;;;;;;;4899724;29;20055;-82
2022/01/12 14:11:49;;;;;;;43.85;24.20;;;;;;;;;;4936901;29;20023;-79
2022/01/12 14:14:26;;;;;;;64.38;35.35;;;;;;;;;;4921935;29;20019;-80
2022/01/12 14:17:13;;;;;;;44.90;23.30;;;;;;;;;;4922409;29;20090;-80
2022/01/12 14:20:05;;;;;;;54.70;29.80;;;;;;;;;;4923639;29;20023;-81
2022/01/12 14:22:41;;;;;;;51.17;27.00;;;;;;;;;;4917510;29;20488;-81
2022/01/12 14:25:09;;;;;;;40.45;20.70;;;;;;;;;;4936882;29;20047;-83
2022/01/12 14:27:41;;;;;;;80.97;42.03;;;;;;;;;;4937064;28;20167;-79
2022/01/12 14:30:07;;;;;;;64.85;36.65;;;;;;;;;;4918974;29;20123;-79
2022/01/12 14:32:36;;;;;;;55.25;28.67;;;;;;;;;;4918871;29;20042;-78
2022/01/12 14:35:02;;;;;;;66.97;35.47;;;;;;;;;;4923238;29;20023;-79
2022/01/12 14:37:28;;;;;;;97.72;50.45;;;;;;;;;;4941532;29;20202;-81
2022/01/12 14:39:53;;;;;;;127.55;64.00;;;;;;;;;;4921940;29;20114;-82
2022/01/12 14:42:18;;;;;;;104.30;57.03;;;;;;;;;;4922911;29;20481;-80
2022/01/12 14:44:44;;;;;;;88.10;45.42;;;;;;;;;;4940824;28;20364;-78
2022/01/12 14:47:09;;;;;;;86.82;44.75;;;;;;;;;;4939700;28;20102;-80
2022/01/12 14:49:34;;;;;;;83.72;43.38;;;;;;;;;;4923163;29;20058;-78
2022/01/12 14:52:00;;;;;;;71.13;41.50;;;;;;;;;;4940693;28;20736;-79
2022/01/12 14:54:25;;;;;;;71.70;36.65;;;;;;;;;;4940324;29;20027;-78
2022/01/12 14:56:51;;;;;;;58.65;31.58;;;;;;;;;;4941253;28;20401;-79
2022/01/12 14:59:16;;;;;;;74.80;39.03;;;;;;;;;;4922542;29;20228;-81
2022/01/12 15:01:42;;;;;;;70.35;38.47;;;;;;;;;;4922405;29;20024;-79
2022/01/12 15:04:07;;;;;;;71.43;41.70;;;;;;;;;;4940413;29;20016;-81
2022/01/12 15:06:32;;;;;;;75.40;43.22;;;;;;;;;;4940336;28;20073;-82
2022/01/12 15:08:58;;;;;;;73.35;39.10;;;;;;;;;;4940186;29;20019;-80
2022/01/12 15:11:23;;;;;;;68.53;37.30;;;;;;;;;;4922288;29;20452;-80
2022/01/12 15:13:55;;;;;;;87.65;48.63;;;;;;;;;;4922568;29;20368;-80
2022/01/12 15:16:21;;;;;;;64.30;37.88;;;;;;;;;;4922462;29;20043;-79
2022/01/12 15:18:46;;;;;;;86.72;47.95;;;;;;;;;;4922431;29;20368;-80
2022/01/12 15:21:12;;;;;;;101.82;57.55;;;;;;;;;;4922264;29;20025;-80
2022/01/12 15:23:37;;;;;;;69.97;42.33;;;;;;;;;;4922056;29;20015;-79
2022/01/12 15:26:02;;;;;;;133.00;74.68;;;;;;;;;;4922538;29;20086;-80
2022/01/12 15:28:28;;;;;;;119.93;63.35;;;;;;;;;;4939412;28;20023;-80
2022/01/12 15:30:54;;;;;;;110.63;61.83;;;;;;;;;;4922122;29;20182;-79
2022/01/12 15:33:19;;;;;;;85.82;47.55;;;;;;;;;;4940111;28;20094;-79
2022/01/12 15:35:44;;;;;;;49.95;28.92;;;;;;;;;;4921548;29;20034;-80
2022/01/12 15:38:10;;;;;;;53.53;30.00;;;;;;;;;;4921790;29;20097;-80
2022/01/12 15:40:36;;;;;;;76.78;39.28;;;;;;;;;;4921733;29;20019;-79
2022/01/12 15:43:02;;;;;;;52.28;29.00;;;;;;;;;;4921867;29;20038;-80
2022/01/12 15:45:28;;;;;;;100.70;46.50;;;;;;;;;;4921015;29;20019;-79
2022/01/12 15:47:53;;;;;;;96.50;44.88;;;;;;;;;;4940666;28;20027;-79
2022/01/12 15:50:19;;;;;;;103.80;48.60;;;;;;;;;;4922158;29;20139;-79
2022/01/12 15:52:44;;;;;;;59.75;31.10;;;;;;;;;;4922259;29;20082;-78
2022/01/12 15:55:10;;;;;;;49.80;27.98;;;;;;;;;;4922678;29;20132;-79
2022/01/12 15:57:35;;;;;;;72.75;35.35;;;;;;;;;;4922055;29;20038;-82
2022/01/12 16:00:02;;;;;;;69.03;34.47;;;;;;;;;;4921980;29;20627;-81
2022/01/12 16:02:27;;;;;;;93.53;43.75;;;;;;;;;;4939520;29;20016;-79
2022/01/12 16:04:52;;;;;;;90.65;43.33;;;;;;;;;;4939579;29;20027;-81
2022/01/12 16:07:18;;;;;;;88.90;44.30;;;;;;;;;;4922487;29;20501;-80
2022/01/12 16:09:44;;;;;;;66.78;33.83;;;;;;;;;;4939972;29;20484;-79
2022/01/12 16:12:10;;;;;;;55.60;30.65;;;;;;;;;;4939113;29;20437;-80
2022/01/12 16:14:35;;;;;;;55.25;30.17;;;;;;;;;;4939251;29;20471;-80
2022/01/12 16:17:04;;;;;;;38.30;24.60;;;;;;;;;;4940229;28;20024;-79
2022/01/12 16:19:30;;;;;;;48.72;27.77;;;;;;;;;;4939192;29;20028;-81
2022/01/12 16:21:55;;;;;;;72.32;35.25;;;;;;;;;;4939698;28;20022;-80
2022/01/12 16:24:21;;;;;;;67.15;32.78;;;;;;;;;;4939186;29;20436;-77
2022/01/12 16:26:48;;;;;;;60.88;30.98;;;;;;;;;;4923197;29;20031;-79
2022/01/12 16:29:14;;;;;;;61.95;33.38;;;;;;;;;;4921369;29;20086;-81
2022/01/12 16:31:40;;;;;;;72.38;37.05;;;;;;;;;;4938950;28;20019;-78
2022/01/12 16:34:07;;;;;;;53.80;30.90;;;;;;;;;;4939788;29;20027;-79
2022/01/12 16:36:34;;;;;;;38.03;21.98;;;;;;;;;;4938812;28;20475;-79
2022/01/12 16:39:00;;;;;;;48.70;28.13;;;;;;;;;;4938063;28;20369;-80
2022/01/12 16:41:26;;;;;;;43.03;25.52;;;;;;;;;;4937187;28;20094;-79
2022/01/12 16:43:51;;;;;;;40.40;22.17;;;;;;;;;;4921345;29;20031;-79
2022/01/12 16:46:19;;;;;;;37.33;22.23;;;;;;;;;;4921246;29;20027;-80
2022/01/12 16:48:45;;;;;;;37.55;20.05;;;;;;;;;;4920682;29;20030;-79
2022/01/12 16:51:11;;;;;;;35.95;19.67;;;;;;;;;;4938951;28;20019;-78
2022/01/12 16:53:40;;;;;;;39.03;19.85;;;;;;;;;;4954093;28;20019;-81
2022/01/12 16:56:10;;;;;;;40.08;21.75;;;;;;;;;;4920452;29;20106;-81
2022/01/12 16:58:39;;;;;;;63.85;27.35;;;;;;;;;;4938784;29;20484;-80
2022/01/12 17:01:07;;;;;;;80.60;29.33;;;;;;;;;;4920610;29;20027;-81
2022/01/12 17:03:33;;;;;;;36.85;18.70;;;;;;;;;;4938550;29;20033;-81
2022/01/12 17:05:58;;;;;;;50.25;25.80;;;;;;;;;;4922433;29;20631;-80
2022/01/12 17:08:24;;;;;;;61.80;30.13;;;;;;;;;;4921579;29;20077;-80
2022/01/12 17:10:49;;;;;;;62.83;30.55;;;;;;;;;;4938226;29;20070;-78
2022/01/12 17:13:15;;;;;;;59.45;31.23;;;;;;;;;;4937630;29;20027;-80
2022/01/12 17:15:44;;;;;;;81.13;35.60;;;;;;;;;;4938068;29;20027;-79
2022/01/12 17:18:30;;;;;;;112.78;47.83;;;;;;;;;;4938218;29;20046;-80
2022/01/12 17:20:55;;;;;;;108.32;48.92;;;;;;;;;;4920828;29;20023;-80
2022/01/12 17:23:21;;;;;;;73.28;34.30;;;;;;;;;;4938353;29;20397;-77
2022/01/12 17:25:46;;;;;;;84.18;38.97;;;;;;;;;;4919824;29;20023;-80
2022/01/12 17:28:15;;;;;;;85.18;39.08;;;;;;;;;;4937993;29;20027;-78
2022/01/12 17:30:41;;;;;;;73.65;36.20;;;;;;;;;;4921377;28;20019;-79
2022/01/12 17:33:06;;;;;;;78.18;35.42;;;;;;;;;;4957481;28;20018;-80
2022/01/12 17:35:32;;;;;;;85.22;41.95;;;;;;;;;;4924691;29;20026;-80
2022/01/12 17:37:57;;;;;;;80.60;42.15;;;;;;;;;;4920992;29;20058;-78